Time;durP1;ratioP1;P1;durP2;ratioP2;P2;SDS_P1;SDS_P2;PMS_P1;PMS_P2;Temp;Humidity;BMP_temperature;BMP_pressure;BME280_temperature;BME280_humidity;BME280_pressure;Samples;Min_cycle;Max_cycle;Signal;HPM_P1;HPM_P2
2023/09/19 05:23:11;;;;;;;;;2.00;2.00;;;;;23.29;54.42;101206.44;5085058;27;45812;-75
2023/09/19 05:25:38;;;;;;;;;0.00;0.00;;;;;23.47;54.53;101206.47;5086851;27;45522;-74
2023/09/19 05:28:05;;;;;;;;;1.00;1.00;;;;;23.66;54.28;101208.13;5089078;27;45539;-74
2023/09/19 05:30:32;;;;;;;;;1.33;1.33;;;;;23.89;54.09;101209.47;5085071;27;45441;-75
2023/09/19 05:32:58;;;;;;;;;1.00;1.00;;;;;24.10;53.49;101203.69;5083083;27;48409;-75
2023/09/19 05:35:24;;;;;;;;;2.00;0.67;;;;;24.32;53.52;101210.41;5085510;27;46064;-76
2023/09/19 05:37:53;;;;;;;;;0.67;0.67;;;;;24.56;53.08;101214.22;5080978;27;45449;-74
2023/09/19 05:40:19;;;;;;;;;2.00;2.00;;;;;24.74;52.65;101211.38;5080466;27;45684;-74
2023/09/19 05:42:46;;;;;;;;;1.00;1.00;;;;;24.96;52.09;101216.41;5086433;27;45847;-73
2023/09/19 05:45:12;;;;;;;;;1.00;1.00;;;;;25.15;51.50;101223.41;5086085;27;45534;-74
2023/09/19 05:47:40;;;;;;;;;0.67;0.33;;;;;25.34;51.10;101224.09;5081227;27;45882;-73
2023/09/19 05:50:08;;;;;;;;;1.00;1.00;;;;;25.52;50.76;101232.06;5085175;27;45348;-73
2023/09/19 05:52:33;;;;;;;;;1.00;1.00;;;;;25.69;50.53;101242.94;5086548;27;46192;-74
2023/09/19 05:54:59;;;;;;;;;4.00;1.00;;;;;25.83;49.92;101236.81;5088060;27;45641;-73
2023/09/19 05:57:25;;;;;;;;;1.33;1.33;;;;;25.95;50.31;101234.59;5079909;27;46238;-75
2023/09/19 05:59:50;;;;;;;;;2.00;1.00;;;;;26.11;49.71;101230.16;5087191;27;46319;-74
2023/09/19 06:02:16;;;;;;;;;1.67;1.67;;;;;26.22;50.04;101232.50;5082122;27;46009;-73
2023/09/19 06:04:41;;;;;;;;;2.00;0.67;;;;;26.35;49.77;101239.28;5085580;27;45799;-73
2023/09/19 06:07:06;;;;;;;;;4.33;3.00;;;;;26.45;49.46;101234.50;5084174;27;46439;-71
2023/09/19 06:09:32;;;;;;;;;2.00;2.00;;;;;26.54;48.87;101233.44;5081483;27;45587;-72
2023/09/19 06:11:58;;;;;;;;;2.00;2.00;;;;;26.64;48.46;101243.25;5088126;27;46372;-72
2023/09/19 06:14:24;;;;;;;;;2.33;1.00;;;;;26.72;48.89;101239.66;5088654;27;45400;-72
2023/09/19 06:16:50;;;;;;;;;0.00;0.00;;;;;26.79;48.64;101246.06;5084883;27;45710;-72
2023/09/19 06:19:15;;;;;;;;;2.00;2.00;;;;;26.84;48.09;101246.38;5087130;27;45509;-72
2023/09/19 06:21:41;;;;;;;;;1.67;1.67;;;;;26.91;47.75;101251.94;5086467;27;47278;-72
2023/09/19 06:24:06;;;;;;;;;1.00;1.00;;;;;26.97;47.49;101243.06;5086670;27;45494;-72
2023/09/19 06:26:32;;;;;;;;;1.00;1.00;;;;;27.01;47.31;101243.59;5085531;27;45545;-72
2023/09/19 06:28:59;;;;;;;;;1.00;1.00;;;;;27.08;47.92;101250.00;5081157;27;46383;-72
2023/09/19 06:31:26;;;;;;;;;2.67;2.00;;;;;27.13;47.76;101257.66;5081182;27;45632;-72
2023/09/19 06:33:52;;;;;;;;;1.00;1.00;;;;;27.16;47.81;101257.25;5070202;27;45672;-75
2023/09/19 06:36:17;;;;;;;;;2.67;1.00;;;;;27.20;46.59;101261.31;5066261;27;45424;-75
2023/09/19 06:38:42;;;;;;;;;2.00;2.00;;;;;27.19;45.99;101263.22;5065975;28;45593;-75
2023/09/19 06:41:08;;;;;;;;;2.67;2.00;;;;;27.21;45.70;101260.28;5070914;27;45645;-75
2023/09/19 06:43:34;;;;;;;;;1.33;1.33;;;;;27.20;45.44;101267.63;5071978;28;45634;-75
2023/09/19 06:46:03;;;;;;;;;1.00;1.00;;;;;27.21;44.85;101265.75;5071759;27;45371;-75
2023/09/19 06:48:29;;;;;;;;;1.00;1.00;;;;;27.23;44.77;101271.88;5069492;28;45399;-75
2023/09/19 06:50:58;;;;;;;;;2.00;2.00;;;;;27.23;44.55;101272.72;5064295;27;45414;-75
2023/09/19 06:53:24;;;;;;;;;1.00;1.00;;;;;27.25;44.63;101260.81;5069489;28;45453;-73
2023/09/19 06:55:50;;;;;;;;;3.67;1.00;;;;;27.23;44.23;101261.81;5066103;27;45442;-73
2023/09/19 06:58:16;;;;;;;;;0.00;0.00;;;;;27.25;43.98;101268.97;5071682;28;45571;-76
2023/09/19 07:00:42;;;;;;;;;1.00;1.00;;;;;27.22;43.57;101265.56;5065329;28;47562;-75
2023/09/19 07:03:11;;;;;;;;;1.00;1.00;;;;;27.20;43.49;101273.09;5069339;27;45458;-75
2023/09/19 07:05:38;;;;;;;;;2.00;1.00;;;;;27.19;43.93;101271.41;5065501;28;45489;-75
2023/09/19 07:08:05;;;;;;;;;0.00;0.00;;;;;27.18;43.34;101275.13;5061605;27;45573;-75
2023/09/19 07:10:33;;;;;;;;;1.00;1.00;;;;;27.21;43.09;101276.63;5064165;27;46247;-75
2023/09/19 07:12:59;;;;;;;;;3.00;1.00;;;;;27.22;43.01;101279.19;5064500;28;45653;-75
2023/09/19 07:15:30;;;;;;;;;1.67;1.33;;;;;27.23;43.21;101285.50;5063624;27;46430;-75
2023/09/19 07:17:56;;;;;;;;;1.33;1.33;;;;;27.25;43.09;101282.59;5062703;27;45719;-76
2023/09/19 07:20:25;;;;;;;;;1.00;1.00;;;;;27.26;42.67;101282.41;5063071;27;46353;-74
2023/09/19 07:22:50;;;;;;;;;1.00;1.00;;;;;27.25;42.94;101277.97;5068310;27;45706;-74
2023/09/19 07:25:16;;;;;;;;;1.00;1.00;;;;;27.27;42.32;101284.13;5067863;27;45835;-74
2023/09/19 07:27:42;;;;;;;;;1.33;1.33;;;;;27.25;42.79;101272.53;5066445;27;45665;-75
2023/09/19 07:30:08;;;;;;;;;1.00;1.00;;;;;27.24;42.11;101273.56;5065624;27;45579;-74
2023/09/19 07:32:36;;;;;;;;;2.33;1.00;;;;;27.23;42.76;101263.69;5061658;28;45693;-74
2023/09/19 07:35:02;;;;;;;;;1.00;1.00;;;;;27.23;42.84;101263.69;5071978;27;45478;-74
2023/09/19 07:37:31;;;;;;;;;1.00;1.00;;;;;27.24;42.61;101268.13;5065927;27;45591;-75
2023/09/19 07:39:56;;;;;;;;;2.00;2.00;;;;;27.22;42.35;101270.19;5064091;27;46041;-75
2023/09/19 07:42:22;;;;;;;;;1.00;1.00;;;;;27.26;42.04;101265.22;5065488;27;45807;-76
2023/09/19 07:44:50;;;;;;;;;2.33;2.00;;;;;27.26;42.53;101259.75;5065492;27;45676;-75
2023/09/19 07:47:15;;;;;;;;;0.00;0.00;;;;;27.27;42.46;101258.72;5064960;28;45478;-75
2023/09/19 07:49:42;;;;;;;;;2.33;2.33;;;;;27.29;41.83;101268.41;5072707;27;45579;-75
2023/09/19 07:52:08;;;;;;;;;2.67;2.67;;;;;27.31;41.83;101270.97;5071600;27;45514;-76
2023/09/19 07:54:35;;;;;;;;;1.00;1.00;;;;;27.32;42.24;101267.19;5069161;27;45681;-75
2023/09/19 07:57:01;;;;;;;;;2.00;1.00;;;;;27.33;41.61;101267.03;5061716;27;45801;-76
2023/09/19 07:59:26;;;;;;;;;1.00;1.00;;;;;27.34;41.72;101271.44;5067504;28;46033;-75
2023/09/19 08:01:52;;;;;;;;;2.33;2.00;;;;;27.34;41.75;101270.63;5069338;27;45404;-76
2023/09/19 08:04:19;;;;;;;;;1.00;1.00;;;;;27.35;41.76;101270.41;5067583;27;45527;-75
2023/09/19 08:06:44;;;;;;;;;1.00;1.00;;;;;27.34;41.78;101268.72;5070011;27;45566;-75
2023/09/19 08:09:11;;;;;;;;;3.00;1.00;;;;;27.34;41.33;101274.16;5070988;28;45609;-75
2023/09/19 08:11:36;;;;;;;;;2.00;2.00;;;;;27.35;41.85;101275.03;5072319;27;45457;-76
2023/09/19 08:14:02;;;;;;;;;2.00;2.00;;;;;27.35;41.75;101266.84;5070558;27;45644;-75
2023/09/19 08:16:27;;;;;;;;;1.33;1.00;;;;;27.36;41.46;101274.84;5072999;27;45486;-75
2023/09/19 08:18:55;;;;;;;;;1.33;1.33;;;;;27.36;41.62;101271.25;5066409;27;45968;-75
2023/09/19 08:21:21;;;;;;;;;1.33;1.33;;;;;27.36;41.58;101272.13;5071371;27;45476;-75
2023/09/19 08:23:46;;;;;;;;;1.00;1.00;;;;;27.33;40.80;101271.63;5069791;27;45677;-75
2023/09/19 08:26:12;;;;;;;;;3.33;2.00;;;;;27.32;40.75;101265.34;5061921;28;50231;-75
2023/09/19 08:28:40;;;;;;;;;4.33;1.67;;;;;27.30;40.67;101267.38;5065505;27;46207;-76
2023/09/19 08:31:08;;;;;;;;;2.67;1.00;;;;;27.29;40.96;101259.38;5064357;27;45565;-75
2023/09/19 08:33:34;;;;;;;;;1.00;1.00;;;;;27.25;40.98;101277.16;5065747;28;45970;-75
2023/09/19 08:36:00;;;;;;;;;2.00;1.67;;;;;27.25;40.47;101268.97;5065961;27;46021;-74
2023/09/19 08:38:29;;;;;;;;;1.00;1.00;;;;;27.22;40.89;101273.75;5062851;28;46214;-74
2023/09/19 08:40:57;;;;;;;;;1.67;1.67;;;;;27.19;41.09;101276.84;5062450;28;46361;-73
2023/09/19 08:43:22;;;;;;;;;1.00;1.00;;;;;27.21;41.10;101287.53;5065078;27;46962;-74
2023/09/19 08:45:48;;;;;;;;;0.33;0.33;;;;;27.22;40.49;101283.81;5064909;28;45640;-73
2023/09/19 08:48:19;;;;;;;;;2.67;1.00;;;;;27.21;40.44;101274.78;5062982;27;46153;-73
2023/09/19 08:50:51;;;;;;;;;0.00;0.00;;;;;27.23;40.58;101280.06;5063100;28;45510;-74
2023/09/19 08:53:27;;;;;;;;;1.00;1.00;;;;;27.25;40.60;101277.16;5062682;27;46552;-74
2023/09/19 08:55:56;;;;;;;;;0.00;0.00;;;;;27.25;40.45;101277.16;5061644;27;47247;-74
2023/09/19 08:58:27;;;;;;;;;2.00;1.33;;;;;27.28;40.77;101274.03;5064673;28;46947;-74
2023/09/19 09:00:55;;;;;;;;;1.00;1.00;;;;;27.30;40.67;101277.44;5064125;27;47207;-74
2023/09/19 09:03:22;;;;;;;;;1.00;1.00;;;;;27.31;40.51;101277.28;5061279;28;45691;-73
2023/09/19 09:05:50;;;;;;;;;1.67;1.00;;;;;27.33;40.22;101274.34;5061475;28;45513;-72
2023/09/19 09:08:20;;;;;;;;;0.00;0.00;;;;;27.32;40.39;101270.78;5064227;28;47235;-72
2023/09/19 09:10:45;;;;;;;;;0.33;0.33;;;;;27.31;40.48;101271.81;5064352;27;45632;-73
2023/09/19 09:13:14;;;;;;;;;0.00;0.00;;;;;27.30;40.41;101272.00;5063205;27;46211;-72
2023/09/19 09:15:41;;;;;;;;;1.33;1.33;;;;;27.31;40.14;101265.50;5064346;28;46062;-76
2023/09/19 09:18:06;;;;;;;;;2.00;2.00;;;;;27.30;40.43;101255.66;5061111;27;45711;-74
2023/09/19 09:20:32;;;;;;;;;1.00;1.00;;;;;27.29;39.93;101259.38;5063291;27;45606;-74
2023/09/19 09:23:03;;;;;;;;;1.00;1.00;;;;;27.27;40.36;101256.00;5063107;27;47263;-75
2023/09/19 09:25:54;;;;;;;;;2.00;2.00;;;;;27.26;40.53;101255.16;5064180;28;46013;-71
2023/09/19 09:28:21;;;;;;;;;3.00;2.00;;;;;27.29;40.73;101262.09;5065199;28;46909;-72
2023/09/19 09:30:47;;;;;;;;;2.00;2.00;;;;;27.32;41.47;101253.56;5067970;27;45887;-72
2023/09/19 09:33:15;;;;;;;;;2.67;1.00;;;;;27.36;40.96;101257.63;5060755;27;45523;-72
2023/09/19 09:35:59;;;;;;;;;1.00;1.00;;;;;27.40;42.50;101247.22;5065376;28;45460;-72
2023/09/19 09:38:27;;;;;;;;;2.00;0.00;;;;;27.43;42.31;101258.59;5071671;27;45444;-72
2023/09/19 09:43:35;;;;;;;;;1.67;1.00;;;;;27.49;43.00;101263.34;5066396;27;45635;-72
2023/09/19 09:49:14;;;;;;;;;1.00;1.00;;;;;27.54;43.16;101253.75;5065546;28;46165;-73
2023/09/19 09:51:34;;;;;;;;;1.00;1.00;;;;;27.57;43.89;101251.50;5066423;28;45649;-75
2023/09/19 09:54:20;;;;;;;;;3.00;0.67;;;;;27.57;43.40;101250.66;5067894;28;45461;-75
2023/09/19 09:56:59;;;;;;;;;2.00;1.00;;;;;27.57;43.86;101243.31;5067230;28;45464;-75
2023/09/19 09:59:49;;;;;;;;;1.00;1.00;;;;;27.58;43.52;101250.47;5070206;28;46059;-75
2023/09/19 10:02:20;;;;;;;;;1.00;0.33;;;;;27.58;43.87;101241.44;5064480;27;45412;-74
2023/09/19 10:04:51;;;;;;;;;0.00;0.00;;;;;27.58;44.14;101236.84;5066728;28;45512;-74
2023/09/19 10:07:49;;;;;;;;;1.00;1.00;;;;;27.62;44.42;101231.88;5056502;28;45807;-72
2023/09/19 10:10:28;;;;;;;;;1.33;1.00;;;;;27.65;43.20;101241.56;5066955;28;46173;-72
2023/09/19 10:13:02;;;;;;;;;3.00;2.67;;;;;27.66;43.41;101241.41;5067533;27;45777;-72
2023/09/19 10:15:31;;;;;;;;;0.67;0.67;;;;;27.68;42.87;101239.34;5063454;28;45447;-72
2023/09/19 10:18:01;;;;;;;;;2.00;1.00;;;;;27.69;42.92;101237.44;5067205;28;45448;-72
2023/09/19 10:20:35;;;;;;;;;0.00;0.00;;;;;27.69;41.81;101234.72;5070303;27;46060;-72
2023/09/19 10:23:03;;;;;;;;;2.00;2.00;;;;;27.67;41.82;101229.44;5072180;27;45445;-72
2023/09/19 10:25:30;;;;;;;;;1.33;1.33;;;;;27.69;41.73;101227.41;5071888;28;45842;-73
2023/09/19 10:27:58;;;;;;;;;1.00;1.00;;;;;27.67;41.28;101229.44;5071155;28;45470;-74
2023/09/19 10:30:25;;;;;;;;;1.00;1.00;;;;;27.69;41.66;101223.81;5068496;27;45532;-74
2023/09/19 10:33:05;;;;;;;;;1.00;1.00;;;;;27.69;41.87;101227.41;5071307;28;47420;-74
2023/09/19 10:35:32;;;;;;;;;0.67;0.67;;;;;27.69;41.12;101221.94;5070675;28;45402;-74
2023/09/19 10:38:01;;;;;;;;;0.67;0.67;;;;;27.69;41.53;101219.22;5070478;28;45576;-73
2023/09/19 10:40:32;;;;;;;;;2.00;1.00;;;;;27.69;41.47;101216.50;5068627;28;45579;-75
2023/09/19 10:43:05;;;;;;;;;1.00;1.00;;;;;27.72;40.81;101212.56;5066038;28;45340;-74
2023/09/19 10:45:31;;;;;;;;;2.00;0.33;;;;;27.71;40.81;101217.16;5073488;27;45761;-73
2023/09/19 10:47:58;;;;;;;;;0.67;0.33;;;;;27.70;40.98;101206.41;5067941;27;46987;-73
2023/09/19 10:50:23;;;;;;;;;0.00;0.00;;;;;27.69;40.35;101221.09;5068981;27;45368;-73
2023/09/19 10:52:58;;;;;;;;;1.00;0.33;;;;;27.67;40.88;101215.00;5070255;27;45409;-72
2023/09/19 10:55:25;;;;;;;;;1.00;1.00;;;;;27.68;40.51;101219.41;5068302;28;45629;-71
2023/09/19 10:57:52;;;;;;;;;1.00;1.00;;;;;27.68;40.64;101208.50;5066630;27;45744;-72
2023/09/19 11:00:24;;;;;;;;;0.00;0.00;;;;;27.69;40.35;101204.72;5072090;28;45473;-71
2023/09/19 11:03:11;;;;;;;;;0.00;0.00;;;;;27.69;39.82;101213.78;5064860;28;45924;-72
2023/09/19 11:05:40;;;;;;;;;0.67;0.67;;;;;27.68;41.28;101213.94;5068191;28;45788;-73
2023/09/19 11:08:07;;;;;;;;;0.33;0.00;;;;;27.68;42.08;101205.78;5071165;28;45363;-73
2023/09/19 11:10:49;;;;;;;;;1.00;0.00;;;;;27.64;41.25;101213.47;5070853;27;46161;-73
2023/09/19 11:13:31;;;;;;;;;4.00;0.33;;;;;27.63;41.46;101206.34;5073971;27;45463;-72
2023/09/19 11:15:57;;;;;;;;;2.00;1.00;;;;;27.61;41.84;101214.69;5063698;27;45470;-72
2023/09/19 11:18:41;;;;;;;;;0.67;0.67;;;;;27.61;42.12;101222.03;5072450;27;45478;-72
2023/09/19 11:21:31;;;;;;;;;2.00;1.00;;;;;27.59;42.27;101210.44;5066482;28;45497;-72
2023/09/19 11:24:22;;;;;;;;;0.00;0.00;;;;;27.57;42.31;101207.03;5071372;28;45836;-72
2023/09/19 11:26:48;;;;;;;;;0.33;0.33;;;;;27.56;42.34;101202.63;5063454;28;45498;-72
2023/09/19 11:29:31;;;;;;;;;1.00;0.00;;;;;27.58;41.54;101204.13;5069648;28;45461;-73
2023/09/19 11:31:59;;;;;;;;;1.67;1.67;;;;;27.60;41.64;101191.19;5069754;27;46328;-75
2023/09/19 11:34:50;;;;;;;;;2.33;2.33;;;;;27.59;41.33;101192.19;5068079;28;45501;-75
2023/09/19 11:37:15;;;;;;;;;3.67;2.00;;;;;27.60;40.94;101185.75;5072642;28;45639;-74
2023/09/19 11:40:15;;;;;;;;;0.33;0.33;;;;;27.61;40.97;101186.56;5070251;27;45398;-75
2023/09/19 11:42:45;;;;;;;;;3.33;2.33;;;;;27.60;40.73;101177.56;5062555;28;46597;-75
2023/09/19 11:45:56;;;;;;;;;3.00;3.00;;;;;27.60;40.76;101177.56;5083849;27;45702;-73
2023/09/19 11:48:25;;;;;;;;;2.00;1.33;;;;;27.60;40.31;101172.13;5070007;28;45512;-72
2023/09/19 11:50:51;;;;;;;;;4.00;1.00;;;;;27.61;40.21;101179.25;5069536;27;45668;-73
2023/09/19 11:53:17;;;;;;;;;1.33;1.00;;;;;27.64;40.57;101182.63;5069022;28;45483;-73
2023/09/19 11:55:43;;;;;;;;;2.33;1.00;;;;;27.63;40.78;101184.53;5071308;27;45458;-73
2023/09/19 11:58:09;;;;;;;;;0.67;0.67;;;;;27.64;41.58;101190.81;5058942;28;45723;-74
2023/09/19 12:00:39;;;;;;;;;1.00;1.00;;;;;27.68;39.94;101189.41;5065185;27;45801;-75
2023/09/19 12:03:11;;;;;;;;;0.00;0.00;;;;;27.68;40.24;101187.53;5071081;27;46022;-75
2023/09/19 12:05:40;;;;;;;;;1.00;1.00;;;;;27.66;39.96;101181.41;5069838;28;45529;-74
2023/09/19 12:08:08;;;;;;;;;3.00;1.67;;;;;27.65;39.98;101196.09;5064566;28;45663;-75
2023/09/19 12:10:45;;;;;;;;;1.33;1.33;;;;;27.64;39.60;101188.94;5066460;28;45574;-75
2023/09/19 12:13:13;;;;;;;;;1.67;1.00;;;;;27.65;39.99;101195.22;5071943;28;45510;-75
2023/09/19 12:15:40;;;;;;;;;1.00;1.00;;;;;27.63;39.70;101189.97;5069266;28;45602;-75
2023/09/19 12:18:05;;;;;;;;;2.67;1.33;;;;;27.64;39.55;101191.66;5071304;27;45430;-76
2023/09/19 12:20:47;;;;;;;;;1.67;1.67;;;;;27.61;38.81;101194.75;5065356;28;47077;-75
2023/09/19 12:23:15;;;;;;;;;3.00;2.00;;;;;27.58;39.54;101187.75;5069533;28;45436;-73
2023/09/19 12:25:47;;;;;;;;;1.00;1.00;;;;;27.56;39.64;101198.03;5061923;28;45730;-74
2023/09/19 12:28:12;;;;;;;;;1.00;1.00;;;;;27.57;39.09;101196.13;5068340;27;46243;-73
2023/09/19 12:30:41;;;;;;;;;5.67;2.00;;;;;27.55;39.46;101179.94;5068773;28;45573;-73
2023/09/19 12:33:15;;;;;;;;;1.00;1.00;;;;;27.56;39.79;101184.38;5066702;27;46054;-74
2023/09/19 12:35:43;;;;;;;;;3.33;2.00;;;;;27.58;39.91;101187.75;5061547;28;45764;-74
2023/09/19 12:38:10;;;;;;;;;1.00;1.00;;;;;27.57;39.62;101180.63;5069371;28;45590;-72
2023/09/19 12:40:38;;;;;;;;;2.00;2.00;;;;;27.60;38.93;101174.84;5061593;27;45402;-72
2023/09/19 12:43:04;;;;;;;;;2.33;1.00;;;;;27.65;39.01;101187.03;5068205;28;45727;-72
2023/09/19 12:45:31;;;;;;;;;1.00;1.00;;;;;27.66;39.43;101177.84;5063302;27;45600;-73
2023/09/19 12:48:22;;;;;;;;;2.00;2.00;;;;;27.66;39.45;101173.22;5071377;28;45449;-73
2023/09/19 12:51:05;;;;;;;;;1.67;1.67;;;;;27.63;39.24;101154.53;5064101;28;45446;-74
2023/09/19 12:53:33;;;;;;;;;2.00;1.00;;;;;27.66;39.34;101148.69;5066896;28;45468;-74
2023/09/19 12:55:59;;;;;;;;;1.33;1.33;;;;;27.68;38.86;101135.72;5070031;27;45628;-73
2023/09/19 12:58:25;;;;;;;;;2.00;2.00;;;;;27.68;39.41;101132.16;5071098;28;45431;-72
2023/09/19 13:00:51;;;;;;;;;3.00;1.50;;;;;27.70;39.21;101141.84;5066504;28;45571;-73
2023/09/19 13:03:35;;;;;;;;;1.33;1.33;;;;;27.72;38.82;101145.22;5060679;28;45873;-73
2023/09/19 13:06:03;;;;;;;;;2.00;2.00;;;;;27.71;39.03;101146.25;5067328;27;45529;-73
2023/09/19 13:08:42;;;;;;;;;2.00;2.00;;;;;27.72;38.55;101139.75;5068621;28;45790;-73
2023/09/19 13:11:17;;;;;;;;;0.67;0.67;;;;;27.72;39.30;101138.94;5068869;28;45458;-72
2023/09/19 13:13:44;;;;;;;;;2.67;2.00;;;;;27.71;38.75;101135.34;5069906;28;47583;-73
2023/09/19 13:16:14;;;;;;;;;1.33;1.33;;;;;27.71;39.20;101137.25;5070051;27;45475;-73
2023/09/19 13:19:09;;;;;;;;;6.00;2.50;;;;;27.71;39.10;101131.78;5062275;27;45601;-73
2023/09/19 13:21:42;;;;;;;;;2.00;2.00;;;;;27.72;38.72;101125.28;5075464;27;45605;-73
2023/09/19 13:24:23;;;;;;;;;2.00;1.33;;;;;27.73;38.84;101116.94;5058121;28;45563;-73
2023/09/19 13:26:48;;;;;;;;;1.33;1.33;;;;;27.73;38.63;101119.66;5069871;28;45521;-73
2023/09/19 13:29:17;;;;;;;;;1.00;1.00;;;;;27.75;39.20;101123.03;5069838;27;45666;-73
2023/09/19 13:31:48;;;;;;;;;3.33;1.67;;;;;27.73;39.17;101118.78;5064127;27;45409;-73
2023/09/19 13:34:15;;;;;;;;;3.00;1.67;;;;;27.75;38.58;101120.28;5066879;27;45521;-72
2023/09/19 13:36:42;;;;;;;;;1.00;1.00;;;;;27.79;38.61;101125.38;5060958;28;45691;-72
2023/09/19 13:39:08;;;;;;;;;1.33;1.33;;;;;27.79;38.43;101112.56;5071185;27;45815;-72
2023/09/19 13:41:36;;;;;;;;;0.67;0.67;;;;;27.83;38.50;101118.53;5070880;27;45647;-72
2023/09/19 13:44:02;;;;;;;;;2.00;1.00;;;;;27.85;37.93;101114.56;5067392;27;47416;-73
2023/09/19 13:46:27;;;;;;;;;1.00;1.00;;;;;27.85;38.06;101119.16;5069925;28;46269;-73
2023/09/19 13:48:54;;;;;;;;;2.00;2.00;;;;;27.81;38.29;101112.41;5074432;27;45399;-72
2023/09/19 13:51:23;;;;;;;;;2.00;1.00;;;;;27.80;38.58;101110.72;5074484;27;45402;-73
2023/09/19 13:53:50;;;;;;;;;2.00;1.00;;;;;27.78;38.53;101107.34;5073838;27;46289;-73
2023/09/19 13:56:15;;;;;;;;;2.00;0.67;;;;;27.78;37.96;101102.72;5070054;28;45489;-72
2023/09/19 13:58:41;;;;;;;;;1.00;1.00;;;;;27.80;38.50;101102.53;5072987;27;45551;-73
2023/09/19 14:01:12;;;;;;;;;2.00;1.00;;;;;27.83;37.93;101093.97;5072477;27;45512;-73
2023/09/19 14:03:37;;;;;;;;;1.00;1.00;;;;;27.85;37.83;101092.75;5073889;27;45887;-72
2023/09/19 14:06:03;;;;;;;;;0.00;0.00;;;;;27.86;38.26;101088.97;5068940;28;45470;-72
2023/09/19 14:08:28;;;;;;;;;3.00;1.00;;;;;27.86;37.99;101077.22;5071479;28;45772;-73
2023/09/19 14:10:54;;;;;;;;;1.67;1.67;;;;;27.85;37.81;101081.84;5071861;27;45507;-72
2023/09/19 14:13:20;;;;;;;;;1.33;1.00;;;;;27.84;37.41;101079.31;5073776;27;45488;-73
2023/09/19 14:15:46;;;;;;;;;1.00;1.00;;;;;27.80;37.36;101086.16;5073660;28;45448;-74
2023/09/19 14:18:11;;;;;;;;;2.00;2.00;;;;;27.77;37.93;101090.13;5063868;27;45506;-72
2023/09/19 14:20:40;;;;;;;;;1.00;1.00;;;;;27.74;37.85;101085.03;5072513;28;45418;-73
2023/09/19 14:23:06;;;;;;;;;2.00;1.00;;;;;27.73;37.45;101088.81;5070829;28;45960;-73
2023/09/19 14:25:34;;;;;;;;;0.33;0.33;;;;;27.68;38.26;101077.63;5073120;28;45452;-74
2023/09/19 14:27:59;;;;;;;;;1.00;1.00;;;;;27.70;37.68;101073.66;5073512;28;45528;-74
2023/09/19 14:30:25;;;;;;;;;1.00;1.00;;;;;27.74;37.71;101079.56;5069109;27;45621;-74
2023/09/19 14:32:50;;;;;;;;;0.33;0.33;;;;;27.76;37.65;101069.34;5071629;27;46142;-74
2023/09/19 14:35:16;;;;;;;;;1.00;1.00;;;;;27.78;37.51;101072.72;5063863;27;45995;-74
2023/09/19 14:37:41;;;;;;;;;2.00;2.00;;;;;27.80;37.43;101072.53;5066158;27;45768;-73
2023/09/19 14:40:08;;;;;;;;;0.67;0.67;;;;;27.80;37.38;101062.47;5069836;27;45396;-75
2023/09/19 14:42:38;;;;;;;;;2.00;2.00;;;;;27.82;38.17;101056.81;5067848;27;46159;-74
2023/09/19 14:45:05;;;;;;;;;2.67;1.00;;;;;27.81;37.68;101049.66;5070594;28;45783;-74
2023/09/19 14:47:32;;;;;;;;;1.00;1.00;;;;;27.81;37.64;101046.94;5071438;27;45571;-73
2023/09/19 14:49:58;;;;;;;;;1.00;1.00;;;;;27.80;38.10;101046.13;5064666;27;45835;-71
2023/09/19 14:52:23;;;;;;;;;3.00;2.33;;;;;27.81;37.91;101047.81;5065743;28;45832;-72
2023/09/19 14:54:48;;;;;;;;;1.00;1.00;;;;;27.81;37.44;101046.94;5069791;28;45485;-73
2023/09/19 14:57:14;;;;;;;;;1.00;1.00;;;;;27.78;37.48;101037.25;5066312;28;46047;-73
2023/09/19 14:59:40;;;;;;;;;1.33;1.33;;;;;27.80;38.03;101034.34;5066019;27;45456;-71
2023/09/19 15:02:05;;;;;;;;;2.67;1.00;;;;;27.79;37.75;101044.41;5062851;27;45496;-72
2023/09/19 15:04:31;;;;;;;;;1.00;1.00;;;;;27.80;37.92;101039.81;5064283;27;45601;-74
2023/09/19 15:06:56;;;;;;;;;3.00;2.00;;;;;27.80;37.48;101026.16;5066363;27;45910;-73
2023/09/19 15:09:28;;;;;;;;;1.00;1.00;;;;;27.80;37.89;101026.16;5064772;27;45724;-74
2023/09/19 15:11:54;;;;;;;;;2.00;1.33;;;;;27.82;37.73;101032.25;5063707;27;45958;-73
2023/09/19 15:14:20;;;;;;;;;1.67;1.00;;;;;27.82;38.08;101029.53;5063767;28;46429;-73
2023/09/19 15:16:46;;;;;;;;;1.00;1.00;;;;;27.81;37.83;101031.44;5063150;27;45660;-73
2023/09/19 15:19:11;;;;;;;;;0.67;0.67;;;;;27.83;37.96;101017.63;5065736;27;45564;-72
2023/09/19 15:21:37;;;;;;;;;2.00;0.33;;;;;27.81;37.99;101027.84;5065320;27;46041;-71
2023/09/19 15:24:03;;;;;;;;;1.00;1.00;;;;;27.81;37.36;101025.13;5066398;27;46091;-72
2023/09/19 15:26:29;;;;;;;;;1.00;1.00;;;;;27.75;37.66;101013.94;5066511;27;45501;-73
2023/09/19 15:28:55;;;;;;;;;2.00;2.00;;;;;27.74;37.87;101017.72;5061273;28;45746;-72
2023/09/19 15:31:20;;;;;;;;;1.00;1.00;;;;;27.72;37.45;101017.03;5064681;27;45907;-75
2023/09/19 15:33:45;;;;;;;;;1.33;1.33;;;;;27.72;37.72;101016.22;5066946;27;45427;-73
2023/09/19 15:36:13;;;;;;;;;1.00;1.00;;;;;27.72;37.67;101011.59;5064994;27;45442;-73
2023/09/19 15:39:05;;;;;;;;;2.00;1.00;;;;;27.77;38.05;101019.22;5063243;28;45595;-73
2023/09/19 15:41:37;;;;;;;;;4.33;3.00;;;;;27.79;37.80;101022.59;5068518;28;45443;-73
2023/09/19 15:44:03;;;;;;;;;2.67;2.67;;;;;27.80;37.89;101020.72;5070951;28;46067;-74
2023/09/19 15:46:35;;;;;;;;;4.33;3.67;;;;;27.80;37.59;101009.81;5071979;27;45854;-73
2023/09/19 15:49:01;;;;;;;;;5.33;4.67;;;;;27.81;38.03;101016.94;5071361;27;45876;-73
2023/09/19 15:51:27;;;;;;;;;4.00;4.00;;;;;27.80;37.30;101010.66;5069833;27;45654;-73
2023/09/19 15:53:55;;;;;;;;;4.33;2.67;;;;;27.80;38.17;101016.13;5069429;27;45709;-72
2023/09/19 15:56:22;;;;;;;;;2.00;2.00;;;;;27.79;37.52;101006.22;5067580;28;45501;-72
2023/09/19 15:58:49;;;;;;;;;5.67;3.67;;;;;27.79;37.30;100995.31;5072579;27;45537;-72
2023/09/19 16:01:15;;;;;;;;;5.00;3.33;;;;;27.78;38.04;101001.81;5072736;28;45498;-72
2023/09/19 16:03:48;;;;;;;;;2.33;2.33;;;;;27.80;37.44;101007.94;5072861;27;45328;-72
2023/09/19 16:06:15;;;;;;;;;5.00;4.33;;;;;27.82;38.10;101011.31;5071579;28;45682;-72
2023/09/19 16:08:41;;;;;;;;;2.33;2.33;;;;;27.84;38.38;101019.31;5070535;28;45534;-72
2023/09/19 16:11:08;;;;;;;;;5.00;4.00;;;;;27.82;37.67;101016.75;5072772;28;45480;-72
2023/09/19 16:13:33;;;;;;;;;2.00;2.00;;;;;27.83;38.17;101012.16;5063524;27;45429;-72
2023/09/19 16:15:58;;;;;;;;;6.00;3.67;;;;;27.83;38.43;101009.44;5065583;27;52377;-70
2023/09/19 16:18:24;;;;;;;;;3.33;2.67;;;;;27.81;37.85;101006.88;5070295;28;45404;-73
2023/09/19 16:20:50;;;;;;;;;2.33;1.33;;;;;27.78;37.57;101007.25;5061701;27;46287;-74
2023/09/19 16:23:15;;;;;;;;;3.00;2.67;;;;;27.74;38.53;101008.69;5068345;28;45412;-75
2023/09/19 16:25:40;;;;;;;;;2.00;1.00;;;;;27.74;38.66;101003.22;5071501;27;46021;-73
2023/09/19 16:28:06;;;;;;;;;2.00;2.00;;;;;27.75;38.70;101002.22;5062933;28;50780;-74
2023/09/19 16:30:33;;;;;;;;;3.67;3.67;;;;;27.75;38.27;101000.31;5069555;28;45662;-70
2023/09/19 16:32:59;;;;;;;;;4.00;2.00;;;;;27.76;38.21;101006.63;5064515;27;45649;-72
2023/09/19 16:35:24;;;;;;;;;2.00;1.33;;;;;27.77;38.50;101007.44;5069399;28;45422;-72
2023/09/19 16:37:50;;;;;;;;;4.67;2.67;;;;;27.76;38.55;101006.63;5064976;27;47134;-73
2023/09/19 16:40:15;;;;;;;;;3.67;2.00;;;;;27.74;39.03;101006.81;5071190;28;45458;-74
2023/09/19 16:42:41;;;;;;;;;2.00;2.00;;;;;27.73;38.96;101007.00;5066978;28;46350;-75
2023/09/19 16:45:10;;;;;;;;;2.67;2.67;;;;;27.74;38.75;101001.34;5071302;28;45513;-74
2023/09/19 16:47:35;;;;;;;;;0.67;0.67;;;;;27.78;38.84;100999.09;5065534;28;45714;-74
2023/09/19 16:50:00;;;;;;;;;3.67;2.00;;;;;27.80;39.41;100998.91;5069216;27;46049;-74
2023/09/19 16:52:26;;;;;;;;;3.00;2.00;;;;;27.82;39.20;100997.66;5069488;28;61758;-74
2023/09/19 16:54:51;;;;;;;;;2.00;2.00;;;;;27.82;39.34;100999.53;5071441;27;45537;-73
2023/09/19 16:57:17;;;;;;;;;4.33;2.33;;;;;27.79;39.47;101005.41;5058666;28;46623;-73
2023/09/19 16:59:42;;;;;;;;;1.00;1.00;;;;;27.76;39.24;100995.72;5060006;28;50529;-73